createdAt,value
2022-10-23T00:03:50.499Z,0.00
2022-10-23T00:08:51.331Z,0.00
2022-10-23T00:13:52.176Z,0.00
2022-10-23T00:18:53.001Z,0.00
2022-10-23T00:23:53.815Z,0.00
2022-10-23T00:28:54.494Z,0.00
2022-10-23T00:33:55.332Z,0.00
2022-10-23T00:38:56.084Z,0.00
2022-10-23T00:43:56.773Z,0.00
2022-10-23T00:48:57.703Z,0.00
2022-10-23T00:54:12.679Z,0.00
2022-10-23T01:04:48.954Z,0.00
2022-10-23T01:09:49.685Z,0.00
2022-10-23T01:14:50.381Z,0.00
2022-10-23T01:19:51.146Z,0.00
2022-10-23T01:24:51.845Z,0.00
2022-10-23T01:29:52.668Z,0.00
2022-10-23T01:34:53.344Z,0.00
2022-10-23T01:39:54.121Z,0.00
2022-10-23T01:44:54.789Z,0.00
2022-10-23T01:49:55.539Z,0.00
2022-10-23T01:54:56.267Z,0.00
2022-10-23T01:59:56.995Z,0.00
2022-10-23T02:04:57.715Z,0.00
2022-10-23T02:09:58.482Z,0.00
2022-10-23T02:14:59.220Z,0.00
2022-10-23T02:19:59.931Z,0.00
2022-10-23T02:25:00.658Z,0.00
2022-10-23T02:30:01.397Z,0.00
2022-10-23T02:35:02.109Z,0.00
2022-10-23T02:40:02.832Z,0.00
2022-10-23T02:45:03.628Z,0.00
2022-10-23T02:50:04.306Z,0.00
2022-10-23T02:55:05.050Z,0.00
2022-10-23T03:00:05.749Z,0.00
2022-10-23T03:05:06.453Z,0.00
2022-10-23T03:10:07.181Z,0.00
2022-10-23T03:15:07.912Z,0.00
2022-10-23T03:20:08.610Z,0.00
2022-10-23T03:25:09.349Z,0.00
2022-10-23T03:30:10.195Z,0.00
2022-10-23T03:35:11.066Z,0.00
2022-10-23T03:40:11.887Z,0.00
2022-10-23T03:45:13.070Z,0.00
2022-10-23T03:50:13.281Z,0.00
2022-10-23T03:55:14.016Z,0.00
2022-10-23T04:00:14.731Z,0.00
2022-10-23T04:05:15.462Z,0.00
2022-10-23T04:10:16.200Z,0.00
2022-10-23T04:15:17.089Z,0.00
2022-10-23T04:20:17.807Z,0.00
2022-10-23T04:25:18.527Z,0.00
2022-10-23T04:30:19.203Z,0.00
2022-10-23T04:35:19.951Z,0.00
2022-10-23T04:40:20.671Z,0.00
2022-10-23T04:45:21.372Z,0.00
2022-10-23T04:50:22.110Z,0.00
2022-10-23T04:55:22.864Z,0.00
2022-10-23T05:00:23.582Z,0.00
2022-10-23T05:05:24.294Z,0.00
2022-10-23T05:10:25.026Z,0.00
2022-10-23T05:15:25.704Z,1.00
2022-10-23T05:20:26.397Z,1.00
2022-10-23T05:25:27.092Z,8.00
2022-10-23T05:30:27.735Z,2.00
2022-10-23T05:35:28.405Z,5.00
2022-10-23T05:40:29.225Z,18.00
2022-10-23T05:45:29.949Z,35.00
2022-10-23T05:50:30.613Z,43.00
2022-10-23T05:55:31.293Z,90.00
2022-10-23T06:00:31.954Z,117.00
2022-10-23T06:05:32.717Z,173.00
2022-10-23T06:10:33.380Z,284.00
2022-10-23T06:15:34.030Z,272.00
2022-10-23T06:20:34.745Z,347.00
2022-10-23T06:25:35.395Z,359.00
2022-10-23T06:30:36.047Z,469.00
2022-10-23T06:35:36.714Z,578.00
2022-10-23T06:40:37.360Z,604.00
2022-10-23T06:45:38.033Z,658.00
2022-10-23T06:50:38.706Z,563.00
2022-10-23T06:55:39.455Z,1426.00
2022-10-23T07:00:47.153Z,1173.00
2022-10-23T07:05:40.835Z,1108.00
2022-10-23T07:10:41.480Z,1247.00
2022-10-23T07:15:42.185Z,1283.00
2022-10-23T07:20:42.886Z,1526.00
2022-10-23T07:25:43.538Z,1614.00
2022-10-23T07:30:44.274Z,1811.00
2022-10-23T07:35:44.940Z,1744.00
2022-10-23T07:40:45.579Z,1891.00
2022-10-23T07:45:46.345Z,1736.00
2022-10-23T07:50:47.008Z,1807.00
2022-10-23T07:55:47.799Z,1864.00
2022-10-23T08:00:48.598Z,2039.00
2022-10-23T08:05:49.242Z,2098.00
2022-10-23T08:10:49.953Z,2662.00
2022-10-23T08:15:50.671Z,3104.00
2022-10-23T08:20:51.299Z,3343.00
2022-10-23T08:25:52.098Z,3196.00
2022-10-23T08:30:52.864Z,3625.00
2022-10-23T08:35:53.687Z,3301.00
2022-10-23T08:40:54.338Z,3272.00
2022-10-23T08:45:55.152Z,3221.00
2022-10-23T08:50:55.906Z,3030.00
2022-10-23T08:55:56.658Z,3195.00
2022-10-23T09:00:57.376Z,2952.00
2022-10-23T09:05:58.189Z,3053.00
2022-10-23T09:10:58.953Z,2985.00
2022-10-23T09:15:59.578Z,2732.00
2022-10-23T09:21:00.406Z,2790.00
2022-10-23T09:26:01.228Z,3033.00
2022-10-23T09:31:02.044Z,3128.00
2022-10-23T09:36:02.877Z,3352.00
2022-10-23T09:41:03.522Z,3424.00
2022-10-23T09:46:04.308Z,3452.00
2022-10-23T09:51:05.075Z,4018.00
2022-10-23T09:56:05.728Z,4236.00
2022-10-23T10:01:06.671Z,4262.00
2022-10-23T10:06:07.023Z,3717.00
2022-10-23T10:11:07.677Z,3496.00
2022-10-23T10:16:08.490Z,4205.00
2022-10-23T10:21:09.267Z,3544.00
2022-10-23T10:26:09.873Z,4124.00
2022-10-23T10:31:10.685Z,4522.00
2022-10-23T10:36:11.497Z,4400.00
2022-10-23T10:41:12.163Z,4142.00
2022-10-23T10:46:12.940Z,3966.00
2022-10-23T10:51:13.611Z,3911.00
2022-10-23T10:56:14.245Z,4384.00
2022-10-23T11:01:15.177Z,4509.00
2022-10-23T11:06:15.874Z,4000.00
2022-10-23T11:11:16.706Z,3093.00
2022-10-23T11:16:17.455Z,1871.00
2022-10-23T11:21:18.108Z,2800.00
2022-10-23T11:26:19.733Z,4406.00
2022-10-23T11:31:19.731Z,4357.00
2022-10-23T11:36:20.393Z,4094.00
2022-10-23T11:41:23.769Z,3948.00
2022-10-23T11:46:22.619Z,4112.00
2022-10-23T11:51:22.271Z,3557.00
2022-10-23T11:56:23.002Z,3714.00
2022-10-23T12:01:23.679Z,2910.00
2022-10-23T12:06:24.358Z,3457.00
2022-10-23T12:11:27.468Z,3055.00
2022-10-23T12:16:25.962Z,4431.00
2022-10-23T12:21:26.645Z,3933.00
2022-10-23T12:26:27.353Z,3429.00
2022-10-23T12:31:27.964Z,3375.00
2022-10-23T12:36:28.825Z,3032.00
2022-10-23T12:41:29.548Z,2568.00
2022-10-23T12:46:30.186Z,2316.00
2022-10-23T12:51:30.886Z,2131.00
2022-10-23T12:56:34.402Z,1938.00
2022-10-23T13:01:41.657Z,1795.00
2022-10-23T13:06:32.980Z,2264.00
2022-10-23T13:11:33.682Z,2395.00
2022-10-23T13:16:34.322Z,2261.00
2022-10-23T13:21:35.042Z,2106.00
2022-10-23T13:26:35.691Z,1899.00
2022-10-23T13:31:36.374Z,1594.00
2022-10-23T13:36:37.068Z,1694.00
2022-10-23T13:41:37.758Z,1874.00
2022-10-23T13:46:38.489Z,2211.00
2022-10-23T13:51:42.515Z,2434.00
2022-10-23T13:56:40.008Z,2215.00
2022-10-23T14:01:40.834Z,1832.00
2022-10-23T14:06:41.557Z,1421.00
2022-10-23T14:11:42.216Z,1308.00
2022-10-23T14:16:42.918Z,1227.00
2022-10-23T14:21:43.563Z,1358.00
2022-10-23T14:26:44.310Z,1230.00
2022-10-23T14:31:44.978Z,1136.00
2022-10-23T14:36:50.896Z,1075.00
2022-10-23T14:41:47.259Z,956.00
2022-10-23T14:46:46.962Z,985.00
2022-10-23T14:51:47.604Z,953.00
2022-10-23T14:56:48.301Z,958.00
2022-10-23T15:01:49.137Z,849.00
2022-10-23T15:06:49.837Z,761.00
2022-10-23T15:11:50.579Z,676.00
2022-10-23T15:16:51.488Z,615.00
2022-10-23T15:21:52.291Z,524.00
2022-10-23T15:26:53.011Z,442.00
2022-10-23T15:31:53.627Z,341.00
2022-10-23T15:36:54.448Z,248.00
2022-10-23T15:41:55.161Z,170.00
2022-10-23T15:46:55.793Z,105.00
2022-10-23T15:51:56.636Z,65.00
2022-10-23T15:56:57.266Z,45.00
2022-10-23T16:01:58.278Z,30.00
2022-10-23T16:06:58.632Z,18.00
2022-10-23T16:11:59.295Z,7.00
2022-10-23T16:17:00.019Z,2.00
2022-10-23T16:22:00.636Z,1.00
2022-10-23T16:27:01.386Z,0.00
2022-10-23T16:32:02.128Z,0.00
2022-10-23T16:37:02.980Z,0.00
2022-10-23T16:42:03.754Z,0.00
2022-10-23T16:47:04.514Z,0.00
2022-10-23T16:52:05.323Z,0.00
2022-10-23T16:57:06.011Z,0.00
2022-10-23T17:02:06.963Z,0.00
2022-10-23T17:07:07.211Z,0.00
2022-10-23T17:12:07.949Z,0.00
2022-10-23T17:17:08.688Z,0.00
2022-10-23T17:22:09.407Z,0.00
2022-10-23T17:27:10.146Z,0.00
2022-10-23T17:32:10.998Z,0.00
2022-10-23T17:37:11.830Z,0.00
2022-10-23T17:42:12.546Z,0.00
2022-10-23T17:47:13.316Z,0.00
2022-10-23T17:52:14.011Z,0.00
2022-10-23T17:57:14.779Z,0.00
2022-10-23T18:02:15.663Z,0.00
2022-10-23T18:07:15.922Z,0.00
2022-10-23T18:12:16.626Z,0.00
2022-10-23T18:17:17.355Z,0.00
2022-10-23T18:27:18.917Z,0.00
2022-10-23T18:32:19.603Z,0.00
2022-10-23T18:37:20.440Z,0.00
2022-10-23T18:42:21.138Z,0.00
2022-10-23T18:47:21.892Z,0.00
2022-10-23T18:52:22.586Z,0.00
2022-10-23T18:57:23.323Z,0.00
2022-10-23T19:02:24.242Z,0.00
2022-10-23T19:07:24.976Z,0.00
2022-10-23T19:12:25.712Z,0.00
2022-10-23T19:17:26.431Z,0.00
2022-10-23T19:22:27.167Z,0.00
2022-10-23T19:27:27.883Z,0.00
2022-10-23T19:32:28.718Z,0.00
2022-10-23T19:37:29.536Z,0.00
2022-10-23T19:42:30.269Z,0.00
2022-10-23T19:47:31.012Z,0.00
2022-10-23T19:52:38.780Z,0.00
2022-10-23T19:57:32.488Z,0.00
2022-10-23T20:02:33.382Z,0.00
2022-10-23T20:07:33.807Z,0.00
2022-10-23T20:12:34.563Z,0.00
2022-10-23T20:17:35.321Z,0.00
2022-10-23T20:22:36.030Z,0.00
2022-10-23T20:32:37.399Z,0.00
2022-10-23T20:37:38.285Z,0.00
2022-10-23T20:42:39.072Z,0.00
2022-10-23T20:47:39.996Z,0.00
2022-10-23T20:52:40.841Z,0.00
2022-10-23T20:57:42.259Z,0.00
2022-10-23T21:02:43.267Z,0.00
2022-10-23T21:07:42.897Z,0.00
2022-10-23T21:12:44.029Z,0.00
2022-10-23T21:17:44.506Z,0.00
2022-10-23T21:22:45.537Z,0.00
2022-10-23T21:27:46.428Z,0.00
2022-10-23T21:32:46.782Z,0.00
2022-10-23T21:37:47.526Z,0.00
2022-10-23T21:42:48.238Z,0.00
2022-10-23T21:47:48.936Z,0.00
2022-10-23T21:52:49.683Z,0.00
2022-10-23T21:57:50.394Z,0.00
2022-10-23T22:02:51.105Z,0.00
2022-10-23T22:07:51.878Z,0.00
2022-10-23T22:12:52.618Z,0.00
2022-10-23T22:17:53.328Z,0.00
2022-10-23T22:22:54.075Z,0.00
2022-10-23T22:27:54.817Z,0.00
2022-10-23T22:32:55.571Z,0.00
2022-10-23T22:37:56.231Z,0.00
2022-10-23T22:42:56.991Z,0.00
2022-10-23T22:47:57.734Z,0.00
2022-10-23T22:52:58.456Z,0.00
2022-10-23T22:57:59.213Z,0.00
2022-10-23T23:03:00.056Z,0.00
2022-10-23T23:08:00.824Z,0.00
2022-10-23T23:13:01.578Z,0.00
2022-10-23T23:18:02.321Z,0.00
2022-10-23T23:23:03.021Z,0.00
2022-10-23T23:28:03.801Z,0.00
2022-10-23T23:33:04.533Z,0.00
2022-10-23T23:38:05.268Z,0.00
2022-10-23T23:43:05.991Z,0.00
2022-10-23T23:48:06.777Z,0.00
2022-10-23T23:53:07.504Z,0.00
2022-10-23T23:58:08.239Z,0.00
